createdAt,value
2022-08-17T00:00:49.523Z,97.53
2022-08-17T00:01:51.783Z,97.64
2022-08-17T00:03:54.432Z,97.17
2022-08-17T00:04:55.544Z,97.47
2022-08-17T00:06:01.513Z,97.45
2022-08-17T00:06:59.059Z,97.83
2022-08-17T00:07:59.270Z,97.93
2022-08-17T00:09:01.844Z,98.04
2022-08-17T00:09:59.996Z,97.74
2022-08-17T00:11:01.242Z,97.43
2022-08-17T00:12:42.216Z,96.98
2022-08-17T00:15:12.949Z,96.42
2022-08-17T00:16:16.121Z,96.69
2022-08-17T00:17:13.458Z,96.57
2022-08-17T00:18:57.483Z,96.67
2022-08-17T00:19:19.211Z,97.06
2022-08-17T00:20:18.526Z,97.22
2022-08-17T00:21:25.338Z,97.03
2022-08-17T00:22:34.726Z,97.54
2022-08-17T00:23:24.148Z,97.43
2022-08-17T00:24:23.954Z,97.83
2022-08-17T00:25:24.162Z,97.53
2022-08-17T00:26:44.273Z,97.44
2022-08-17T00:27:27.660Z,97.61
2022-08-17T00:28:28.077Z,97.71
2022-08-17T00:29:30.641Z,97.89
2022-08-17T00:30:31.167Z,98.34
2022-08-17T00:31:33.827Z,98.6
2022-08-17T00:33:36.610Z,98.53
2022-08-17T00:34:36.408Z,97.84
2022-08-17T00:35:37.540Z,98.79
2022-08-17T00:36:37.033Z,99.12
2022-08-17T00:37:37.559Z,99.37
2022-08-17T00:38:38.045Z,99.83
2022-08-17T00:39:38.346Z,100
2022-08-17T00:41:42.370Z,100
2022-08-17T00:42:41.371Z,100
2022-08-17T00:44:42.731Z,100
2022-08-17T00:45:43.445Z,100
2022-08-17T00:46:44.783Z,100
2022-08-17T00:47:44.066Z,100
2022-08-17T00:48:45.202Z,99.9
2022-08-17T00:49:44.700Z,99.78
2022-08-17T00:54:55.286Z,100
2022-08-17T00:55:54.983Z,99.88
2022-08-17T00:58:00.316Z,100
2022-08-17T00:58:59.002Z,100
2022-08-17T01:01:01.489Z,100
2022-08-17T01:02:02.493Z,100
2022-08-17T01:03:06.431Z,100
2022-08-17T01:04:04.868Z,100
2022-08-17T01:05:04.765Z,100
2022-08-17T01:06:06.678Z,100
2022-08-17T01:07:06.423Z,100
2022-08-17T01:08:09.493Z,100
2022-08-17T01:09:06.739Z,100
2022-08-17T01:11:00.039Z,100
2022-08-17T01:11:08.697Z,100
2022-08-17T01:12:10.337Z,100
2022-08-17T01:13:09.221Z,100
2022-08-17T01:14:09.639Z,100
2022-08-17T01:15:10.461Z,100
2022-08-17T01:17:13.240Z,100
2022-08-17T01:18:13.566Z,100
2022-08-17T01:20:16.127Z,100
2022-08-17T01:22:25.659Z,100
2022-08-17T01:23:25.377Z,100
2022-08-17T01:24:24.043Z,100
2022-08-17T01:25:25.068Z,100
2022-08-17T01:26:24.256Z,100
2022-08-17T01:27:25.697Z,100
2022-08-17T01:28:52.581Z,100
2022-08-17T01:29:31.547Z,100
2022-08-17T01:30:57.160Z,100
2022-08-17T01:32:36.181Z,100
2022-08-17T01:33:37.319Z,100
2022-08-17T01:34:42.663Z,100
2022-08-17T01:35:41.426Z,100
2022-08-17T01:36:43.886Z,100
2022-08-17T01:37:42.875Z,100
2022-08-17T01:38:42.366Z,100
2022-08-17T01:41:52.111Z,100
2022-08-17T01:44:57.446Z,100
2022-08-17T01:46:02.686Z,100
2022-08-17T01:46:56.240Z,100
2022-08-17T01:47:57.165Z,100
2022-08-17T01:48:58.406Z,100
2022-08-17T01:49:57.381Z,100
2022-08-17T01:50:58.116Z,100
2022-08-17T01:52:04.056Z,100
2022-08-17T01:54:10.326Z,100
2022-08-17T01:55:09.302Z,100
2022-08-17T01:56:11.251Z,100
2022-08-17T01:57:09.310Z,100
2022-08-17T01:58:08.998Z,100
2022-08-17T01:59:09.426Z,100
2022-08-17T02:00:10.515Z,100
2022-08-17T02:01:11.635Z,100
2022-08-17T02:02:10.546Z,100
2022-08-17T02:03:11.013Z,100
2022-08-17T02:04:12.320Z,100
2022-08-17T02:05:13.047Z,100
2022-08-17T02:06:27.997Z,100
2022-08-17T02:07:15.827Z,100
2022-08-17T02:08:20.099Z,100
2022-08-17T02:09:17.786Z,100
2022-08-17T02:10:20.284Z,100
2022-08-17T02:11:20.766Z,100
2022-08-17T02:12:38.359Z,100
2022-08-17T02:13:21.806Z,100
2022-08-17T02:14:21.910Z,100
2022-08-17T02:15:22.536Z,100
2022-08-17T02:16:22.338Z,100
2022-08-17T02:17:22.954Z,100
2022-08-17T02:18:23.773Z,100
2022-08-17T02:19:23.689Z,100
2022-08-17T02:20:41.660Z,100
2022-08-17T02:21:25.335Z,100
2022-08-17T02:22:26.376Z,100
2022-08-17T02:25:32.836Z,100
2022-08-17T02:26:30.806Z,100
2022-08-17T02:27:31.427Z,100
2022-08-17T02:28:31.652Z,100
2022-08-17T02:29:32.146Z,100
2022-08-17T02:30:59.656Z,100
2022-08-17T02:31:34.828Z,100
2022-08-17T02:32:35.339Z,100
2022-08-17T02:33:42.955Z,100
2022-08-17T02:34:36.035Z,100
2022-08-17T02:35:38.007Z,100
2022-08-17T02:36:36.910Z,100
2022-08-17T02:37:37.422Z,100
2022-08-17T02:38:39.176Z,100
2022-08-17T02:39:38.464Z,100
2022-08-17T02:40:38.748Z,100
2022-08-17T02:41:39.829Z,100
2022-08-17T02:42:42.138Z,100
2022-08-17T02:43:40.035Z,100
2022-08-17T02:44:41.056Z,100
2022-08-17T02:45:41.162Z,100
2022-08-17T02:46:41.479Z,100
2022-08-17T02:47:42.524Z,100
2022-08-17T02:48:42.432Z,100
2022-08-17T02:49:54.126Z,100
2022-08-17T02:50:48.686Z,100
2022-08-17T02:51:50.121Z,100
2022-08-17T02:53:01.596Z,100
2022-08-17T02:53:50.445Z,100
2022-08-17T02:54:50.545Z,100
2022-08-17T02:55:51.065Z,100
2022-08-17T02:56:51.786Z,100
2022-08-17T02:57:52.515Z,100
2022-08-17T02:58:52.406Z,100
2022-08-17T02:59:52.924Z,100
2022-08-17T03:00:53.338Z,100
2022-08-17T03:01:53.884Z,100
2022-08-17T03:02:54.898Z,100
2022-08-17T03:03:54.798Z,100
2022-08-17T03:04:55.112Z,100
2022-08-17T03:05:56.143Z,100
2022-08-17T03:06:56.452Z,100
2022-08-17T03:07:57.187Z,100
2022-08-17T03:08:57.300Z,100
2022-08-17T03:09:57.924Z,100
2022-08-17T03:10:58.296Z,100
2022-08-17T03:12:07.464Z,100
2022-08-17T03:13:00.285Z,100
2022-08-17T03:14:00.401Z,100
2022-08-17T03:15:05.927Z,100
2022-08-17T03:16:03.780Z,100
2022-08-17T03:17:04.305Z,100
2022-08-17T03:18:04.625Z,100
2022-08-17T03:19:04.827Z,100
2022-08-17T03:20:07.396Z,100
2022-08-17T03:21:06.485Z,100
2022-08-17T03:22:36.035Z,100
2022-08-17T03:23:11.125Z,100
2022-08-17T03:24:11.062Z,100
2022-08-17T03:25:14.717Z,100
2022-08-17T03:26:12.170Z,100
2022-08-17T03:27:12.976Z,100
2022-08-17T03:28:13.497Z,100
2022-08-17T03:29:13.799Z,100
2022-08-17T03:30:15.841Z,100
2022-08-17T03:31:14.709Z,100
2022-08-17T03:32:16.485Z,100
2022-08-17T03:33:15.980Z,100
2022-08-17T03:34:17.233Z,100
2022-08-17T03:35:19.171Z,100
2022-08-17T03:36:17.034Z,100
2022-08-17T03:37:17.645Z,100
2022-08-17T03:38:18.504Z,100
2022-08-17T03:39:18.581Z,100
2022-08-17T03:40:37.005Z,100
2022-08-17T03:41:21.884Z,100
2022-08-17T03:42:32.478Z,100
2022-08-17T03:43:25.975Z,100
2022-08-17T03:44:25.777Z,100
2022-08-17T03:45:26.515Z,100
2022-08-17T03:46:34.167Z,100
2022-08-17T03:47:32.896Z,100
2022-08-17T03:48:33.287Z,100
2022-08-17T03:49:33.794Z,100
2022-08-17T03:50:34.337Z,100
2022-08-17T03:51:34.321Z,100
2022-08-17T03:52:34.650Z,100
2022-08-17T03:54:38.338Z,100
2022-08-17T03:55:38.858Z,100
2022-08-17T03:56:39.696Z,100
2022-08-17T03:57:39.498Z,100
2022-08-17T03:58:39.396Z,100
2022-08-17T03:59:40.908Z,100
2022-08-17T04:00:40.731Z,100
2022-08-17T04:01:40.848Z,100
2022-08-17T04:02:42.910Z,100
2022-08-17T04:03:41.468Z,100
2022-08-17T04:04:41.885Z,100
2022-08-17T04:05:42.619Z,100
2022-08-17T04:06:42.843Z,100
2022-08-17T04:07:43.545Z,100
2022-08-17T04:08:43.341Z,100
2022-08-17T04:09:43.765Z,100
2022-08-17T04:10:45.142Z,100
2022-08-17T04:11:44.811Z,100
2022-08-17T04:13:46.863Z,100
2022-08-17T04:14:53.270Z,100
2022-08-17T04:15:52.014Z,100
2022-08-17T04:16:52.518Z,100
2022-08-17T04:17:52.829Z,100
2022-08-17T04:18:53.342Z,100
2022-08-17T04:19:55.233Z,100
2022-08-17T04:20:54.076Z,100
2022-08-17T04:21:54.183Z,100
2022-08-17T04:23:58.916Z,99.04
2022-08-17T04:24:59.221Z,99.02
2022-08-17T04:25:59.646Z,98.5
2022-08-17T04:27:00.269Z,98.28
2022-08-17T04:28:01.639Z,98.53
2022-08-17T04:29:00.897Z,98.87
2022-08-17T04:30:01.316Z,98.61
2022-08-17T04:31:01.416Z,98.36
2022-08-17T04:32:02.957Z,98.2
2022-08-17T04:33:08.635Z,97.66
2022-08-17T04:34:06.055Z,97.25
2022-08-17T04:35:07.092Z,97.3
2022-08-17T04:36:08.717Z,97.36
2022-08-17T04:37:07.181Z,97.32
2022-08-17T04:38:09.753Z,97.14
2022-08-17T04:39:08.237Z,96.77
2022-08-17T04:40:09.702Z,96.85
2022-08-17T04:41:09.563Z,97
2022-08-17T04:42:09.167Z,97.18
2022-08-17T04:44:12.041Z,97.4
2022-08-17T04:45:11.857Z,97.4
2022-08-17T04:46:17.796Z,97.3
2022-08-17T04:47:15.039Z,97.04
2022-08-17T04:48:15.651Z,96.72
2022-08-17T04:49:15.962Z,96.28
2022-08-17T04:50:16.703Z,96.5
2022-08-17T04:51:22.436Z,96.72
2022-08-17T04:52:37.462Z,96.82
2022-08-17T04:53:21.928Z,96.86
2022-08-17T04:54:22.560Z,96.69
2022-08-17T04:55:22.864Z,96.24
2022-08-17T04:56:26.055Z,96.24
2022-08-17T04:57:23.593Z,95.83
2022-08-17T04:58:23.915Z,95.43
2022-08-17T04:59:24.324Z,95
2022-08-17T05:00:24.957Z,93.97
2022-08-17T05:01:28.173Z,94.67
2022-08-17T05:02:25.587Z,94.97
2022-08-17T05:03:26.400Z,94.86
2022-08-17T05:04:33.966Z,94.26
2022-08-17T05:05:30.206Z,93.43
2022-08-17T05:06:30.121Z,93.53
2022-08-17T05:07:31.587Z,92.62
2022-08-17T05:08:29.507Z,91.78
2022-08-17T05:09:29.943Z,92.04
2022-08-17T05:10:34.848Z,91.82
2022-08-17T05:11:35.161Z,91.1
2022-08-17T05:12:34.758Z,90.95
2022-08-17T05:13:35.187Z,90.73
2022-08-17T05:14:38.348Z,89.65
2022-08-17T05:15:38.559Z,89.46
2022-08-17T05:16:37.441Z,88.34
2022-08-17T05:17:37.762Z,87.82
2022-08-17T05:18:38.275Z,86.95
2022-08-17T05:19:38.796Z,86.74
2022-08-17T05:20:40.338Z,86.44
2022-08-17T05:21:39.417Z,85.54
2022-08-17T05:23:47.730Z,85.27
2022-08-17T05:24:53.944Z,85.1
2022-08-17T05:25:50.519Z,84.76
2022-08-17T05:26:48.366Z,84.45
2022-08-17T05:27:48.885Z,84.52
2022-08-17T05:28:49.301Z,83.9
2022-08-17T05:29:49.719Z,83.9
2022-08-17T05:30:50.433Z,83.43
2022-08-17T05:31:50.448Z,83.37
2022-08-17T05:32:56.289Z,82.35
2022-08-17T05:33:53.627Z,81.7
2022-08-17T05:34:56.919Z,80.68
2022-08-17T05:35:57.227Z,80.98
2022-08-17T05:36:54.990Z,80.74
2022-08-17T05:37:56.758Z,80.83
2022-08-17T05:38:55.719Z,80.71
2022-08-17T05:39:56.086Z,79.95
2022-08-17T05:40:57.671Z,80.29
2022-08-17T05:41:56.548Z,80.04
2022-08-17T05:43:57.591Z,79.03
2022-08-17T05:44:58.725Z,78.64
2022-08-17T05:47:05.180Z,79.08
2022-08-17T05:48:08.163Z,78.57
2022-08-17T05:49:08.783Z,78.3
2022-08-17T05:50:10.077Z,77.98
2022-08-17T06:00:31.395Z,75.86
2022-08-17T06:17:08.657Z,72.18
2022-08-17T06:18:09.494Z,72.07
2022-08-17T06:20:15.406Z,71.63
2022-08-17T06:21:17.183Z,70.83
2022-08-17T06:22:20.171Z,70.23
2022-08-17T06:23:30.411Z,69.77
2022-08-17T06:26:42.800Z,69.74
2022-08-17T06:28:41.718Z,70.48
2022-08-17T06:31:41.725Z,70.19
2022-08-17T06:33:44.501Z,69.62
2022-08-17T06:34:46.244Z,68.76
2022-08-17T06:45:18.286Z,67.79
2022-08-17T06:57:55.215Z,66.04
2022-08-17T06:58:57.071Z,66.39
2022-08-17T07:00:58.747Z,65.74
2022-08-17T07:01:56.975Z,65.98
2022-08-17T07:05:02.636Z,65.77
2022-08-17T07:06:08.364Z,65.8
2022-08-17T07:07:10.013Z,67.08
2022-08-17T07:10:14.968Z,67.69
2022-08-17T07:12:21.586Z,66.48
2022-08-17T07:17:46.692Z,64.71
2022-08-17T07:18:30.900Z,64.59
2022-08-17T07:19:32.928Z,64.76
2022-08-17T07:20:30.647Z,64.75
2022-08-17T07:25:42.697Z,63.84
2022-08-17T07:26:43.025Z,64.36
2022-08-17T07:27:46.297Z,64.66
2022-08-17T07:28:44.367Z,63.79
2022-08-17T07:31:48.772Z,63.28
2022-08-17T07:35:04.465Z,62.01
2022-08-17T07:35:59.162Z,61.78
2022-08-17T07:37:05.437Z,62.3
2022-08-17T07:38:25.416Z,62.02
2022-08-17T07:39:04.386Z,62.24
2022-08-17T07:41:10.860Z,61.8
2022-08-17T07:42:10.761Z,62.9
2022-08-17T07:43:21.899Z,62.57
2022-08-17T07:44:16.192Z,61.7
2022-08-17T07:45:15.498Z,62.09
2022-08-17T07:47:17.337Z,62.11
2022-08-17T07:48:21.483Z,61.94
2022-08-17T07:49:32.618Z,61.35
2022-08-17T07:50:28.637Z,61.05
2022-08-17T07:51:28.761Z,61.14
2022-08-17T07:53:26.502Z,61.25
2022-08-17T07:54:33.466Z,61.1
2022-08-17T07:55:32.664Z,58.08
2022-08-17T07:57:35.949Z,57.93
2022-08-17T07:58:34.515Z,58.16
2022-08-17T07:59:36.803Z,58.78
2022-08-17T08:00:35.148Z,58.06
2022-08-17T08:01:39.378Z,57.38
2022-08-17T08:02:42.411Z,57.19
2022-08-17T08:03:44.383Z,57.88
2022-08-17T08:05:03.838Z,58.13
2022-08-17T08:05:52.600Z,56.91
2022-08-17T08:06:52.697Z,56.84
2022-08-17T08:08:55.883Z,57.28
2022-08-17T08:11:04.909Z,55.49
2022-08-17T08:17:22.560Z,55.47
2022-08-17T08:18:54.943Z,54.27
2022-08-17T08:19:20.591Z,54.05
2022-08-17T08:20:51.766Z,55.07
2022-08-17T08:27:42.497Z,56.78
2022-08-17T08:30:46.099Z,56.6
2022-08-17T08:55:58.862Z,50.42
2022-08-17T08:57:22.344Z,51.63
2022-08-17T09:01:00.316Z,49.16
2022-08-17T09:15:42.503Z,51.13
2022-08-17T09:29:14.120Z,50.71
2022-08-17T09:30:12.518Z,50.82
2022-08-17T09:31:19.062Z,51.32
2022-08-17T09:33:24.598Z,50.45
2022-08-17T09:39:46.897Z,50.41
2022-08-17T09:50:13.648Z,46.63
2022-08-17T09:53:07.623Z,47.45
2022-08-17T09:55:10.624Z,47.67
2022-08-17T10:18:19.468Z,47.97
2022-08-17T10:21:15.083Z,47.67
2022-08-17T10:25:24.855Z,45.95
2022-08-17T10:26:26.052Z,46.85
2022-08-17T10:28:32.324Z,46.97
2022-08-17T10:29:46.194Z,46.2
2022-08-17T10:30:35.105Z,46.5
2022-08-17T10:55:34.038Z,44.77
2022-08-17T10:57:45.428Z,43.1
2022-08-17T11:24:45.618Z,44.82
2022-08-17T11:25:53.935Z,45.53
2022-08-17T11:27:51.563Z,44.33
2022-08-17T11:28:52.893Z,43.69
2022-08-17T11:32:59.382Z,44.58
2022-08-17T11:56:51.135Z,43.19
2022-08-17T11:58:00.364Z,43.7
2022-08-17T11:58:52.892Z,44.58
2022-08-17T12:00:01.096Z,45.76
2022-08-17T12:01:00.912Z,43.79
2022-08-17T12:01:59.663Z,45.1
2022-08-17T12:09:22.953Z,43.13
2022-08-17T12:12:31.381Z,42.81
2022-08-17T12:13:38.549Z,42.96
2022-08-17T12:15:07.956Z,42.85
2022-08-17T12:16:40.892Z,42.77
2022-08-17T12:17:52.275Z,43.03
2022-08-17T12:19:48.539Z,43.5
2022-08-17T12:27:07.212Z,43.69
2022-08-17T12:29:18.161Z,43.37
2022-08-17T12:30:15.523Z,43.84
2022-08-17T12:32:19.930Z,44.34
2022-08-17T12:33:25.443Z,44.79
2022-08-17T12:34:24.655Z,43.54
2022-08-17T12:35:30.298Z,43.66
2022-08-17T12:36:24.886Z,44.1
2022-08-17T12:37:31.134Z,43.68
2022-08-17T12:38:30.389Z,44.66
2022-08-17T12:39:26.784Z,43.67
2022-08-17T12:40:28.600Z,43.64
2022-08-17T12:42:36.194Z,43.14
2022-08-17T12:43:33.416Z,42.54
2022-08-17T12:44:46.278Z,42.44
2022-08-17T12:45:39.474Z,42.35
2022-08-17T12:47:39.805Z,43.25
2022-08-17T12:48:40.215Z,43.36
2022-08-17T12:49:42.777Z,43.31
2022-08-17T12:50:45.042Z,43.62
2022-08-17T12:51:45.448Z,43.17
2022-08-17T12:52:43.624Z,43.31
2022-08-17T12:55:50.194Z,42.67
2022-08-17T12:56:49.069Z,43.08
2022-08-17T12:58:52.473Z,41.74
2022-08-17T13:02:00.650Z,42.53
2022-08-17T13:04:04.677Z,43.16
2022-08-17T13:05:07.571Z,42.72
2022-08-17T13:07:07.572Z,40.48
2022-08-17T13:13:22.972Z,42.12
2022-08-17T13:14:20.833Z,43.13
2022-08-17T13:15:24.828Z,43.43
2022-08-17T13:16:27.902Z,42.71
2022-08-17T13:17:28.620Z,42.48
2022-08-17T13:19:40.078Z,42.12
2022-08-17T13:20:28.750Z,43.2
2022-08-17T13:21:29.884Z,42.55
2022-08-17T13:22:30.309Z,42.72
2022-08-17T13:23:30.300Z,42.17
2022-08-17T13:24:38.262Z,41.34
2022-08-17T13:25:31.341Z,41.11
2022-08-17T13:27:36.473Z,42.14
2022-08-17T13:28:36.788Z,42.5
2022-08-17T13:30:39.973Z,42.6
2022-08-17T13:31:52.290Z,41.38
2022-08-17T13:32:45.767Z,41.19
2022-08-17T13:33:45.056Z,41.34
2022-08-17T13:35:14.106Z,41.7
2022-08-17T13:35:50.453Z,42.38
2022-08-17T13:36:51.172Z,41.79
2022-08-17T13:39:59.400Z,42.07
2022-08-17T13:40:57.328Z,41.96
2022-08-17T13:41:57.452Z,41.96
2022-08-17T13:42:58.587Z,42.06
2022-08-17T13:43:58.076Z,41.97
2022-08-17T13:44:59.324Z,41.76
2022-08-17T13:47:02.912Z,41.97
2022-08-17T13:55:28.360Z,43.84
2022-08-17T13:57:28.681Z,43.67
2022-08-17T14:00:35.772Z,44.58
2022-08-17T14:02:35.371Z,43.96
2022-08-17T14:03:35.480Z,43.91
2022-08-17T14:04:38.563Z,43.78
2022-08-17T14:05:39.386Z,44.13
2022-08-17T14:07:40.419Z,43.39
2022-08-17T14:08:41.047Z,42.92
2022-08-17T14:10:56.726Z,43.42
2022-08-17T14:11:49.875Z,42.99
2022-08-17T14:12:49.577Z,43.04
2022-08-17T14:13:50.735Z,43.26
2022-08-17T14:14:51.115Z,43.29
2022-08-17T14:15:55.224Z,43.87
2022-08-17T14:16:54.207Z,44.72
2022-08-17T14:17:54.696Z,44.58
2022-08-17T14:18:56.907Z,43.15
2022-08-17T14:19:55.353Z,43.59
2022-08-17T14:20:55.565Z,43.76
2022-08-17T14:21:55.985Z,44.23
2022-08-17T14:22:56.393Z,44.82
2022-08-17T14:23:57.934Z,45.02
2022-08-17T14:24:58.146Z,45.13
2022-08-17T14:25:57.641Z,45.33
2022-08-17T14:26:59.592Z,44.41
2022-08-17T14:27:58.460Z,43.39
2022-08-17T14:28:58.582Z,43.85
2022-08-17T14:29:59.519Z,43.92
2022-08-17T14:31:00.543Z,44.03
2022-08-17T14:32:04.032Z,45.03
2022-08-17T14:33:01.691Z,45.08
2022-08-17T14:34:01.798Z,44.24
2022-08-17T14:35:05.384Z,44.92
2022-08-17T14:36:03.754Z,44.83
2022-08-17T14:37:03.151Z,44.9
2022-08-17T14:38:03.558Z,44.28
2022-08-17T14:39:04.384Z,44.78
2022-08-17T14:40:09.954Z,44.74
2022-08-17T14:41:07.468Z,44.26
2022-08-17T14:42:07.984Z,43.74
2022-08-17T14:43:08.196Z,44.58
2022-08-17T14:44:08.928Z,45.61
2022-08-17T14:45:29.957Z,46.38
2022-08-17T14:46:13.033Z,46.38
2022-08-17T14:47:13.342Z,45.55
2022-08-17T14:48:13.456Z,46.14
2022-08-17T14:49:14.179Z,45.75
2022-08-17T14:50:15.105Z,45.97
2022-08-17T14:51:16.862Z,46.28
2022-08-17T14:52:18.909Z,45.68
2022-08-17T14:53:17.708Z,44.79
2022-08-17T14:54:33.312Z,45.36
2022-08-17T14:55:22.411Z,45.83
2022-08-17T14:56:22.223Z,45.52
2022-08-17T14:57:34.334Z,45.37
2022-08-17T14:58:27.262Z,45.58
2022-08-17T14:59:27.562Z,45.68
2022-08-17T15:00:27.768Z,44.96
2022-08-17T15:01:28.174Z,44.91
2022-08-17T15:02:30.893Z,45.05
2022-08-17T15:03:28.925Z,45.11
2022-08-17T15:04:29.745Z,45.24
2022-08-17T15:05:34.862Z,45.2
2022-08-17T15:06:32.323Z,45.26
2022-08-17T15:07:32.746Z,45.35
2022-08-17T15:08:33.264Z,44.9
2022-08-17T15:09:35.766Z,44.65
2022-08-17T15:10:35.119Z,44.87
2022-08-17T15:11:34.699Z,45.3
2022-08-17T15:12:35.744Z,46.5
2022-08-17T15:13:35.954Z,46.7
2022-08-17T15:14:36.457Z,46.61
2022-08-17T15:15:35.971Z,47.66
2022-08-17T15:16:37.295Z,45.97
2022-08-17T15:17:44.485Z,46.62
2022-08-17T15:18:38.134Z,45.77
2022-08-17T15:19:38.444Z,45.38
2022-08-17T15:20:39.162Z,45.15
2022-08-17T15:21:39.166Z,45.64
2022-08-17T15:22:44.502Z,45.48
2022-08-17T15:23:41.973Z,45.47
2022-08-17T15:24:42.158Z,45.82
2022-08-17T15:25:43.304Z,46.23
2022-08-17T15:26:43.297Z,46.26
2022-08-17T15:27:43.310Z,46.79
2022-08-17T15:28:43.678Z,46.83
2022-08-17T15:29:46.291Z,47.18
2022-08-17T15:30:46.806Z,46.96
2022-08-17T15:31:47.127Z,46.79
2022-08-17T15:32:54.068Z,46.85
2022-08-17T15:33:53.180Z,46.92
2022-08-17T15:34:55.026Z,46.79
2022-08-17T15:35:53.084Z,46.9
2022-08-17T15:36:53.809Z,47.25
2022-08-17T15:37:53.710Z,47.96
2022-08-17T15:38:54.230Z,48.89
2022-08-17T15:39:55.903Z,48.68
2022-08-17T15:40:55.268Z,50.34
2022-08-17T15:41:58.564Z,50.23
2022-08-17T15:42:56.411Z,49.77
2022-08-17T15:43:56.631Z,49.86
2022-08-17T15:44:57.139Z,50.26
2022-08-17T15:46:58.070Z,49.97
2022-08-17T15:47:58.597Z,51.17
2022-08-17T15:49:00.448Z,50.6
2022-08-17T15:50:00.279Z,51.08
2022-08-17T15:51:01.038Z,51.16
2022-08-17T15:52:00.051Z,50.71
2022-08-17T15:53:01.600Z,51.52
2022-08-17T15:54:19.354Z,51.03
2022-08-17T15:55:06.726Z,50.98
2022-08-17T15:56:07.004Z,51.38
2022-08-17T15:57:06.022Z,51.9
2022-08-17T15:58:06.230Z,53.24
2022-08-17T15:59:06.347Z,52.04
2022-08-17T16:00:09.328Z,53.54
2022-08-17T16:01:14.131Z,54.22
2022-08-17T16:03:45.126Z,53.36
2022-08-17T16:04:30.293Z,53.88
2022-08-17T16:05:18.819Z,54.61
2022-08-17T16:06:17.963Z,55.44
2022-08-17T16:07:17.659Z,53.92
2022-08-17T16:08:21.147Z,54.72
2022-08-17T16:09:18.989Z,55.47
2022-08-17T16:10:19.700Z,55.88
2022-08-17T16:11:20.251Z,55.14
2022-08-17T16:12:21.275Z,55.92
2022-08-17T16:13:20.158Z,55.11
2022-08-17T16:14:20.890Z,55.4
2022-08-17T16:15:20.890Z,54.74
2022-08-17T16:16:21.198Z,54.41
2022-08-17T16:17:38.898Z,54.45
2022-08-17T16:18:24.190Z,55.18
2022-08-17T16:19:23.376Z,53.98
2022-08-17T16:20:23.654Z,55.2
2022-08-17T16:21:24.004Z,55.1
2022-08-17T16:23:26.066Z,56.41
2022-08-17T16:24:26.478Z,56.55
2022-08-17T16:25:52.551Z,56.09
2022-08-17T16:26:29.459Z,56.29
2022-08-17T16:27:27.620Z,58.06
2022-08-17T16:28:36.354Z,57.95
2022-08-17T16:29:28.965Z,57.54
2022-08-17T16:30:29.963Z,58.7
2022-08-17T16:31:30.412Z,58.81
2022-08-17T16:32:31.909Z,58.46
2022-08-17T16:33:30.637Z,59.27
2022-08-17T16:34:30.640Z,57.87
2022-08-17T16:35:31.059Z,59.1
2022-08-17T16:36:31.469Z,57.89
2022-08-17T16:37:33.051Z,58.87
2022-08-17T16:38:32.409Z,57.88
2022-08-17T16:39:32.683Z,59.04
2022-08-17T16:40:35.621Z,59.31
2022-08-17T16:41:33.867Z,58.61
2022-08-17T16:42:35.603Z,58.65
2022-08-17T16:43:34.789Z,59.02
2022-08-17T16:44:34.602Z,59.31
2022-08-17T16:45:35.327Z,59.62
2022-08-17T16:46:35.528Z,60.61
2022-08-17T16:47:36.461Z,62.13
2022-08-17T16:48:36.053Z,62.31
2022-08-17T16:49:38.091Z,62.45
2022-08-17T16:50:36.891Z,63.28
2022-08-17T16:51:37.617Z,63.63
2022-08-17T16:52:38.241Z,63.26
2022-08-17T16:53:37.642Z,64.16
2022-08-17T16:54:39.886Z,64.54
2022-08-17T16:55:38.688Z,66.13
2022-08-17T16:56:38.666Z,66.51
2022-08-17T16:57:48.538Z,67.8
2022-08-17T16:58:42.987Z,67.7
2022-08-17T16:59:47.965Z,67.83
2022-08-17T17:00:46.283Z,68.29
2022-08-17T17:01:45.966Z,68
2022-08-17T17:02:47.858Z,68.45
2022-08-17T17:03:56.353Z,68.36
2022-08-17T17:07:08.323Z,68.81
2022-08-17T17:08:11.510Z,69.16
2022-08-17T17:09:17.151Z,69.47
2022-08-17T17:10:22.906Z,70.16
2022-08-17T17:11:15.627Z,70.16
2022-08-17T17:12:19.725Z,69.48
2022-08-17T17:14:26.403Z,70.46
2022-08-17T17:15:32.554Z,70.95
2022-08-17T17:20:44.461Z,71.36
2022-08-17T17:33:14.774Z,73.43
2022-08-17T17:34:16.225Z,73.51
2022-08-17T17:43:39.002Z,76.15
2022-08-17T17:44:40.628Z,76.78
2022-08-17T17:45:44.532Z,76.58
2022-08-17T17:46:50.886Z,76.77
2022-08-17T17:47:44.466Z,75.93
2022-08-17T17:48:43.833Z,75.99
2022-08-17T17:49:46.701Z,76.69
2022-08-17T18:15:50.551Z,82.95
2022-08-17T18:16:57.008Z,83.21
2022-08-17T18:18:51.392Z,83.22
2022-08-17T18:19:50.175Z,83.61
2022-08-17T18:20:53.923Z,83.55
2022-08-17T18:22:55.207Z,84.08
2022-08-17T18:24:01.676Z,84
2022-08-17T18:24:59.012Z,83.59
2022-08-17T18:26:00.346Z,83.46
2022-08-17T18:27:01.581Z,83.84
2022-08-17T18:28:00.261Z,83.9
2022-08-17T18:29:02.320Z,83.43
2022-08-17T18:38:28.685Z,85.44
2022-08-17T18:39:27.103Z,85.55
2022-08-17T18:40:29.210Z,85.76
2022-08-17T18:41:26.661Z,86.07
2022-08-17T18:42:29.023Z,86.18
2022-08-17T18:43:53.198Z,85.92
2022-08-17T18:46:37.708Z,85.5
2022-08-17T18:49:44.631Z,85.89
2022-08-17T18:50:42.691Z,86.19
2022-08-17T18:51:43.506Z,86
2022-08-17T18:52:43.423Z,86.56
2022-08-17T18:53:43.842Z,87.3
2022-08-17T18:55:49.056Z,88.3
2022-08-17T18:57:53.905Z,88.69
2022-08-17T18:59:55.351Z,88.81
2022-08-17T19:00:55.671Z,89
2022-08-17T19:04:01.007Z,89.47
2022-08-17T19:13:24.584Z,90.49
2022-08-17T19:14:23.391Z,90.6
2022-08-17T19:15:30.878Z,90.84
2022-08-17T19:16:34.469Z,90.41
2022-08-17T19:20:46.081Z,90.17
2022-08-17T19:24:47.566Z,90.39
2022-08-17T19:25:52.492Z,90.39
2022-08-17T19:28:02.361Z,90.97
2022-08-17T19:29:00.059Z,90.95
2022-08-17T19:30:11.223Z,91.25
2022-08-17T19:31:00.877Z,91.43
2022-08-17T19:31:59.561Z,91.5
2022-08-17T19:33:01.811Z,91.58
2022-08-17T19:34:00.703Z,91.58
2022-08-17T19:35:01.224Z,91.21
2022-08-17T20:00:11.024Z,93.57
2022-08-17T20:01:07.487Z,93.63
2022-08-17T20:05:15.230Z,93.58
2022-08-17T20:06:14.001Z,93.86
2022-08-17T20:07:19.032Z,94.38
2022-08-17T20:08:24.170Z,93.92
2022-08-17T20:09:29.754Z,94.01
2022-08-17T20:10:34.318Z,94.59
2022-08-17T20:11:33.901Z,94.69
2022-08-17T20:12:31.455Z,94.93
2022-08-17T20:13:38.740Z,94.96
2022-08-17T20:15:40.234Z,95.02
2022-08-17T20:16:38.136Z,94.77
2022-08-17T20:17:45.105Z,94.6
2022-08-17T20:23:56.616Z,95.32
2022-08-17T20:36:22.829Z,95.34
2022-08-17T20:41:30.836Z,96.16
2022-08-17T20:42:31.562Z,96.76
2022-08-17T20:44:37.612Z,96.73
2022-08-17T20:48:18.728Z,96.82
2022-08-17T20:48:49.931Z,97.02
2022-08-17T20:49:55.660Z,96.83
2022-08-17T20:50:56.384Z,96.75
2022-08-17T20:53:00.202Z,96.91
2022-08-17T20:54:06.743Z,96.86
2022-08-17T20:54:59.081Z,96.47
2022-08-17T20:55:59.601Z,96.13
2022-08-17T20:57:01.345Z,96.44
2022-08-17T20:59:02.282Z,97.34
2022-08-17T21:06:20.037Z,97.17
2022-08-17T21:08:24.656Z,97.72
2022-08-17T21:09:29.282Z,97.99
2022-08-17T21:32:30.143Z,97.89
2022-08-17T21:36:32.431Z,97.51
2022-08-17T21:39:40.916Z,97.78
2022-08-17T21:42:50.490Z,98.36
2022-08-17T21:43:52.033Z,98.46
2022-08-17T21:44:52.454Z,98.55
2022-08-17T21:46:54.293Z,98.87
2022-08-17T21:48:56.352Z,98.62
2022-08-17T21:49:56.565Z,98.62
2022-08-17T21:51:59.453Z,98.72
2022-08-17T21:53:02.532Z,98.65
2022-08-17T21:54:03.767Z,98.79
2022-08-17T21:55:02.442Z,98.78
2022-08-17T21:56:02.129Z,98.53
2022-08-17T21:57:05.789Z,98.67
2022-08-17T22:00:07.802Z,98.55
2022-08-17T22:05:14.803Z,97.27
2022-08-17T22:06:24.217Z,97.3
2022-08-17T22:08:23.935Z,97.32
2022-08-17T22:09:25.992Z,97.32
2022-08-17T22:11:24.873Z,97.92
2022-08-17T22:12:26.105Z,98.07
2022-08-17T22:13:29.378Z,98.33
2022-08-17T22:15:30.023Z,98.37
2022-08-17T22:16:31.554Z,98.22
2022-08-17T22:18:32.184Z,98.09
2022-08-17T22:19:33.211Z,98
2022-08-17T22:20:32.611Z,97.77
2022-08-17T22:21:33.122Z,97.53
2022-08-17T22:24:38.666Z,97.06
2022-08-17T22:31:55.822Z,97.57
2022-08-17T22:32:56.338Z,97.65
2022-08-17T22:42:24.261Z,98.76
2022-08-17T22:43:26.760Z,99.07
2022-08-17T22:45:28.782Z,99.44
2022-08-17T22:46:29.402Z,99.52
2022-08-17T22:47:34.139Z,99.62
2022-08-17T22:48:31.564Z,99.81